createdAt,value
2022-09-10T00:01:23.739Z,25.88
2022-09-10T00:03:51.128Z,26.05
2022-09-10T00:06:19.066Z,26.15
2022-09-10T00:08:47.311Z,26.12
2022-09-10T00:11:15.115Z,25.79
2022-09-10T00:13:43.123Z,25.36
2022-09-10T00:16:12.963Z,25.42
2022-09-10T00:18:40.737Z,25.48
2022-09-10T00:21:10.461Z,25.82
2022-09-10T00:23:37.905Z,25.78
2022-09-10T00:26:16.791Z,26.03
2022-09-10T00:28:44.092Z,26.09
2022-09-10T00:31:11.304Z,26.29
2022-09-10T00:33:38.271Z,26.23
2022-09-10T00:36:14.548Z,26.24
2022-09-10T00:38:41.995Z,26.27
2022-09-10T00:41:09.291Z,26.22
2022-09-10T00:44:00.559Z,26.15
2022-09-10T00:46:36.721Z,26.15
2022-09-10T00:49:13.001Z,26.20
2022-09-10T00:51:40.950Z,26.23
2022-09-10T00:54:08.025Z,26.27
2022-09-10T00:56:35.273Z,26.21
2022-09-10T00:59:04.587Z,26.29
2022-09-10T01:01:33.689Z,26.26
2022-09-10T01:04:01.576Z,26.28
2022-09-10T01:06:28.641Z,26.20
2022-09-10T01:08:55.723Z,26.22
2022-09-10T01:11:37.838Z,26.23
2022-09-10T01:14:26.960Z,26.24
2022-09-10T01:17:10.035Z,26.22
2022-09-10T01:19:58.675Z,26.01
2022-09-10T01:22:37.727Z,26.10
2022-09-10T01:25:43.744Z,26.14
2022-09-10T01:28:21.481Z,26.14
2022-09-10T01:30:54.759Z,26.17
2022-09-10T01:33:43.092Z,26.18
2022-09-10T01:36:23.984Z,26.27
2022-09-10T01:38:52.003Z,26.18
2022-09-10T01:41:24.078Z,26.23
2022-09-10T01:43:50.971Z,26.11
2022-09-10T01:46:29.963Z,26.14
2022-09-10T01:49:09.784Z,25.58
2022-09-10T01:51:56.411Z,25.48
2022-09-10T01:54:52.002Z,25.78
2022-09-10T01:58:00.567Z,26.02
2022-09-10T02:00:38.434Z,26.11
2022-09-10T02:03:11.451Z,26.20
2022-09-10T02:05:42.059Z,26.17
2022-09-10T02:08:17.064Z,26.16
2022-09-10T02:10:50.866Z,26.30
2022-09-10T02:13:17.848Z,26.26
2022-09-10T02:16:08.293Z,26.10
2022-09-10T02:18:42.793Z,26.12
2022-09-10T02:21:12.073Z,25.96
2022-09-10T02:23:50.620Z,26.03
2022-09-10T02:26:17.541Z,25.90
2022-09-10T02:28:44.762Z,26.13
2022-09-10T02:31:12.896Z,26.24
2022-09-10T02:33:39.866Z,26.24
2022-09-10T02:36:06.834Z,26.04
2022-09-10T02:38:33.713Z,26.20
2022-09-10T02:41:00.644Z,26.25
2022-09-10T02:43:28.359Z,26.30
2022-09-10T02:45:59.105Z,26.32
2022-09-10T02:48:27.127Z,26.28
2022-09-10T02:50:57.447Z,26.34
2022-09-10T02:53:26.981Z,26.07
2022-09-10T02:55:56.778Z,26.09
2022-09-10T02:58:24.175Z,26.18
2022-09-10T03:00:51.755Z,26.22
2022-09-10T03:03:18.681Z,26.08
2022-09-10T03:05:45.445Z,26.05
2022-09-10T03:08:13.766Z,26.06
2022-09-10T03:10:43.637Z,25.92
2022-09-10T03:13:11.233Z,26.03
2022-09-10T03:15:38.292Z,26.00
2022-09-10T03:18:05.724Z,25.97
2022-09-10T03:20:32.583Z,26.11
2022-09-10T03:22:59.353Z,26.17
2022-09-10T03:25:26.178Z,25.79
2022-09-10T03:27:57.355Z,25.99
2022-09-10T03:30:26.151Z,26.06
2022-09-10T03:32:54.629Z,25.95
2022-09-10T03:35:22.404Z,25.90
2022-09-10T03:37:49.548Z,26.08
2022-09-10T03:40:17.016Z,26.08
2022-09-10T03:42:44.088Z,25.82
2022-09-10T03:45:12.098Z,25.59
2022-09-10T03:47:39.479Z,25.77
2022-09-10T03:50:06.872Z,25.70
2022-09-10T03:52:33.760Z,25.35
2022-09-10T03:55:01.768Z,25.39
2022-09-10T03:57:28.738Z,25.47
2022-09-10T03:59:56.671Z,25.73
2022-09-10T04:02:24.062Z,25.74
2022-09-10T04:04:50.830Z,25.67
2022-09-10T04:07:17.739Z,25.83
2022-09-10T04:09:44.705Z,25.94
2022-09-10T04:12:12.368Z,25.92
2022-09-10T04:14:39.456Z,25.83
2022-09-10T04:17:06.389Z,25.81
2022-09-10T04:19:33.279Z,25.62
2022-09-10T04:22:00.132Z,25.36
2022-09-10T04:24:27.004Z,25.69
2022-09-10T04:26:54.204Z,25.78
2022-09-10T04:29:23.035Z,25.92
2022-09-10T04:31:50.711Z,25.82
2022-09-10T04:34:18.827Z,25.83
2022-09-10T04:36:46.063Z,25.93
2022-09-10T04:39:14.585Z,25.79
2022-09-10T04:41:42.399Z,26.02
2022-09-10T04:44:10.176Z,26.17
2022-09-10T04:46:37.536Z,26.03
2022-09-10T04:49:08.556Z,25.95
2022-09-10T04:51:35.439Z,25.72
2022-09-10T04:54:02.299Z,26.03
2022-09-10T04:56:33.302Z,26.06
2022-09-10T04:59:00.939Z,25.82
2022-09-10T05:01:31.277Z,26.13
2022-09-10T05:03:58.139Z,26.13
2022-09-10T05:06:25.211Z,26.18
2022-09-10T05:08:52.164Z,26.14
2022-09-10T05:11:19.848Z,25.80
2022-09-10T05:13:47.808Z,25.22
2022-09-10T05:16:18.271Z,25.46
2022-09-10T05:18:45.707Z,25.80
2022-09-10T05:21:13.364Z,25.91
2022-09-10T05:23:41.783Z,26.27
2022-09-10T05:26:10.232Z,26.18
2022-09-10T05:28:37.552Z,25.96
2022-09-10T05:31:07.348Z,26.29
2022-09-10T05:33:34.545Z,26.26
2022-09-10T05:36:01.705Z,26.09
2022-09-10T05:38:29.941Z,26.03
2022-09-10T05:40:57.765Z,26.02
2022-09-10T05:43:27.680Z,25.74
2022-09-10T05:45:55.927Z,25.91
2022-09-10T05:48:22.951Z,25.50
2022-09-10T05:50:49.738Z,25.39
2022-09-10T05:53:17.020Z,25.35
2022-09-10T05:55:46.036Z,25.22
2022-09-10T05:58:13.657Z,25.64
2022-09-10T06:00:43.237Z,25.66
2022-09-10T06:03:10.520Z,25.10
2022-09-10T06:05:52.448Z,26.04
2022-09-10T06:08:24.309Z,26.30
2022-09-10T06:11:06.573Z,25.98
2022-09-10T06:13:42.296Z,25.92
2022-09-10T06:16:10.191Z,26.21
2022-09-10T06:18:38.461Z,25.60
2022-09-10T06:21:15.328Z,25.45
2022-09-10T06:23:45.302Z,25.65
2022-09-10T06:26:20.052Z,25.59
2022-09-10T06:28:52.875Z,25.95
2022-09-10T06:31:20.307Z,26.21
2022-09-10T06:33:49.989Z,26.08
2022-09-10T06:36:23.222Z,26.53
2022-09-10T06:38:51.659Z,26.46
2022-09-10T06:41:21.283Z,26.55
2022-09-10T06:43:54.779Z,26.24
2022-09-10T06:47:32.452Z,25.98
2022-09-10T06:49:31.414Z,26.00
2022-09-10T06:51:58.456Z,26.11
2022-09-10T06:54:26.675Z,25.72
2022-09-10T06:56:58.046Z,26.22
2022-09-10T06:59:25.728Z,26.49
2022-09-10T07:01:55.270Z,26.25
2022-09-10T07:04:22.157Z,26.23
2022-09-10T07:06:49.964Z,26.33
2022-09-10T07:09:17.190Z,27.42
2022-09-10T07:12:04.773Z,27.36
2022-09-10T07:14:35.123Z,27.01
2022-09-10T07:17:05.861Z,26.87
2022-09-10T07:19:36.209Z,27.32
2022-09-10T07:22:06.279Z,27.31
2022-09-10T07:24:34.172Z,27.31
2022-09-10T07:27:11.096Z,28.03
2022-09-10T07:29:41.137Z,28.52
2022-09-10T07:32:13.724Z,28.05
2022-09-10T07:34:41.641Z,27.17
2022-09-10T07:37:08.520Z,28.21
2022-09-10T07:39:35.820Z,28.61
2022-09-10T07:42:03.007Z,28.65
2022-09-10T07:44:34.675Z,27.78
2022-09-10T07:47:03.445Z,28.30
2022-09-10T07:49:31.561Z,28.67
2022-09-10T07:52:00.241Z,28.66
2022-09-10T07:54:32.188Z,28.92
2022-09-10T07:57:00.276Z,28.90
2022-09-10T07:59:28.051Z,28.75
2022-09-10T08:02:00.789Z,29.81
2022-09-10T08:04:36.781Z,29.67
2022-09-10T08:07:07.740Z,28.99
2022-09-10T08:09:37.492Z,29.45
2022-09-10T08:12:07.667Z,29.28
2022-09-10T08:14:35.143Z,30.13
2022-09-10T08:17:01.999Z,29.10
2022-09-10T08:19:29.632Z,29.30
2022-09-10T08:21:56.794Z,29.73
2022-09-10T08:24:31.291Z,29.79
2022-09-10T08:26:58.306Z,29.97
2022-09-10T08:29:25.955Z,29.85
2022-09-10T08:31:52.863Z,29.17
2022-09-10T08:34:27.112Z,29.45
2022-09-10T08:37:03.393Z,29.24
2022-09-10T08:39:33.093Z,29.28
2022-09-10T08:42:05.993Z,29.94
2022-09-10T08:44:54.535Z,30.38
2022-09-10T08:48:16.641Z,30.10
2022-09-10T08:51:13.731Z,30.17
2022-09-10T08:53:53.861Z,29.62
2022-09-10T08:56:23.548Z,30.14
2022-09-10T08:59:17.219Z,30.18
2022-09-10T09:02:01.442Z,30.43
2022-09-10T09:04:30.023Z,30.75
2022-09-10T09:07:02.878Z,30.57
2022-09-10T09:09:30.837Z,29.92
2022-09-10T09:12:15.738Z,30.43
2022-09-10T09:14:50.339Z,30.15
2022-09-10T09:17:58.829Z,30.67
2022-09-10T09:21:00.905Z,30.78
2022-09-10T09:24:02.832Z,30.22
2022-09-10T09:26:36.958Z,30.48
2022-09-10T09:29:28.791Z,30.65
2022-09-10T09:32:00.935Z,30.46
2022-09-10T09:34:36.265Z,30.75
2022-09-10T09:37:12.760Z,30.89
2022-09-10T09:39:55.403Z,30.64
2022-09-10T09:42:32.738Z,30.63
2022-09-10T09:45:18.556Z,30.55
2022-09-10T09:47:46.824Z,30.60
2022-09-10T09:50:14.459Z,30.33
2022-09-10T09:52:44.356Z,30.70
2022-09-10T09:55:29.568Z,30.83
2022-09-10T09:58:21.160Z,30.08
2022-09-10T10:01:03.579Z,31.07
2022-09-10T10:03:58.589Z,31.30
2022-09-10T10:06:29.708Z,31.26
2022-09-10T10:09:39.057Z,31.82
2022-09-10T10:12:07.206Z,31.14
2022-09-10T10:14:41.475Z,31.90
2022-09-10T10:17:37.531Z,32.04
2022-09-10T10:20:10.392Z,32.70
2022-09-10T10:22:40.064Z,33.13
2022-09-10T10:25:34.323Z,33.13
2022-09-10T10:28:01.559Z,32.58
2022-09-10T10:30:31.607Z,33.18
2022-09-10T10:33:00.377Z,32.96
2022-09-10T10:35:30.100Z,33.33
2022-09-10T10:38:18.455Z,33.01
2022-09-10T10:40:51.542Z,33.60
2022-09-10T10:43:47.543Z,33.22
2022-09-10T10:46:20.912Z,33.30
2022-09-10T10:49:33.952Z,33.52
2022-09-10T10:52:15.881Z,33.12
2022-09-10T10:55:13.015Z,33.70
2022-09-10T10:58:02.079Z,33.94
2022-09-10T11:00:40.835Z,34.16
2022-09-10T11:03:16.006Z,34.36
2022-09-10T11:05:53.024Z,34.54
2022-09-10T11:08:32.394Z,34.65
2022-09-10T11:11:49.524Z,34.47
2022-09-10T11:15:02.286Z,33.81
2022-09-10T11:17:46.506Z,34.55
2022-09-10T11:20:28.817Z,34.48
2022-09-10T11:23:18.461Z,34.44
2022-09-10T11:25:57.047Z,33.31
2022-09-10T11:29:14.053Z,30.83
2022-09-10T11:31:49.955Z,30.28
2022-09-10T11:34:41.847Z,29.18
2022-09-10T11:37:17.806Z,28.17
2022-09-10T11:39:50.660Z,27.63
2022-09-10T11:42:30.373Z,26.50
2022-09-10T11:45:18.170Z,27.58
2022-09-10T11:47:50.644Z,27.89
2022-09-10T11:50:23.624Z,28.22
2022-09-10T11:52:51.396Z,28.13
2022-09-10T11:55:18.450Z,27.91
2022-09-10T11:58:03.925Z,28.12
2022-09-10T12:00:36.346Z,28.01
2022-09-10T12:03:21.608Z,27.77
2022-09-10T12:06:10.851Z,28.06
2022-09-10T12:08:44.023Z,27.76
2022-09-10T12:11:38.992Z,27.70
2022-09-10T12:14:17.106Z,27.70
2022-09-10T12:17:03.324Z,27.33
2022-09-10T12:19:37.647Z,27.63
2022-09-10T12:22:20.366Z,27.79
2022-09-10T12:25:07.003Z,27.51
2022-09-10T12:28:06.745Z,27.81
2022-09-10T12:30:33.679Z,27.94
2022-09-10T12:33:07.622Z,27.79
2022-09-10T12:35:34.672Z,27.22
2022-09-10T12:38:42.042Z,26.47
2022-09-10T12:41:29.152Z,26.93
2022-09-10T12:44:00.636Z,27.20
2022-09-10T12:46:31.319Z,27.21
2022-09-10T12:49:01.189Z,27.69
2022-09-10T12:51:49.801Z,27.64
2022-09-10T12:54:50.824Z,28.04
2022-09-10T12:57:20.441Z,27.94
2022-09-10T13:00:12.019Z,28.53
2022-09-10T13:03:07.562Z,28.69
2022-09-10T13:05:39.466Z,28.76
2022-09-10T13:08:12.412Z,28.89
2022-09-10T13:10:40.989Z,28.26
2022-09-10T13:13:43.951Z,28.10
2022-09-10T13:16:20.430Z,28.66
2022-09-10T13:18:48.405Z,28.93
2022-09-10T13:21:23.935Z,29.23
2022-09-10T13:23:52.396Z,29.40
2022-09-10T13:26:48.387Z,29.78
2022-09-10T13:29:52.704Z,29.08
2022-09-10T13:32:37.776Z,29.58
2022-09-10T13:35:19.851Z,29.96
2022-09-10T13:37:56.246Z,30.15
2022-09-10T13:40:38.760Z,30.11
2022-09-10T13:43:20.192Z,30.07
2022-09-10T13:45:52.103Z,29.92
2022-09-10T13:48:23.944Z,30.03
2022-09-10T13:51:06.702Z,30.03
2022-09-10T13:53:35.536Z,30.03
2022-09-10T13:56:11.228Z,30.21
2022-09-10T13:58:48.488Z,30.20
2022-09-10T14:01:15.692Z,30.34
2022-09-10T14:03:42.553Z,31.00
2022-09-10T14:06:21.694Z,31.64
2022-09-10T14:08:56.116Z,31.78
2022-09-10T14:11:30.291Z,32.69
2022-09-10T14:14:03.267Z,32.96
2022-09-10T14:16:39.293Z,33.13
2022-09-10T14:19:15.212Z,33.30
2022-09-10T14:21:43.699Z,33.12
2022-09-10T14:24:29.110Z,32.60
2022-09-10T14:27:16.161Z,32.36
2022-09-10T14:29:43.644Z,31.98
2022-09-10T14:32:31.717Z,31.93
2022-09-10T14:34:59.482Z,31.61
2022-09-10T14:37:44.633Z,31.54
2022-09-10T14:40:21.592Z,31.34
2022-09-10T14:42:50.043Z,31.27
2022-09-10T14:45:40.749Z,31.40
2022-09-10T14:48:38.865Z,31.13
2022-09-10T14:51:14.496Z,31.36
2022-09-10T14:53:42.859Z,31.82
2022-09-10T14:56:25.391Z,32.32
2022-09-10T14:59:01.652Z,32.60
2022-09-10T15:01:29.996Z,32.63
2022-09-10T15:03:58.058Z,32.38
2022-09-10T15:06:26.571Z,32.00
2022-09-10T15:08:56.178Z,31.72
2022-09-10T15:11:26.138Z,31.28
2022-09-10T15:13:56.153Z,31.04
2022-09-10T15:16:25.593Z,31.04
2022-09-10T15:18:52.512Z,31.10
2022-09-10T15:21:19.939Z,31.09
2022-09-10T15:23:48.155Z,30.98
2022-09-10T15:26:15.589Z,30.99
2022-09-10T15:28:42.408Z,30.74
2022-09-10T15:31:10.418Z,30.56
2022-09-10T15:33:37.284Z,30.14
2022-09-10T15:36:04.468Z,30.17
2022-09-10T15:38:31.518Z,29.63
2022-09-10T15:41:13.305Z,29.77
2022-09-10T15:43:43.141Z,29.54
2022-09-10T15:46:16.242Z,30.17
2022-09-10T15:48:43.579Z,30.00
2022-09-10T15:51:17.196Z,30.08
2022-09-10T15:53:46.046Z,30.13
2022-09-10T15:56:13.784Z,30.25
2022-09-10T15:58:41.924Z,30.29
2022-09-10T16:01:12.164Z,30.01
2022-09-10T16:03:45.651Z,30.02
2022-09-10T16:06:14.593Z,29.95
2022-09-10T16:08:42.111Z,30.00
2022-09-10T16:11:11.844Z,29.99
2022-09-10T16:13:39.778Z,29.39
2022-09-10T16:16:10.031Z,28.89
2022-09-10T16:18:36.955Z,29.56
2022-09-10T16:21:09.402Z,29.95
2022-09-10T16:23:37.182Z,29.69
2022-09-10T16:26:07.711Z,29.83
2022-09-10T16:28:35.472Z,29.68
2022-09-10T16:31:13.995Z,28.63
2022-09-10T16:33:41.488Z,28.77
2022-09-10T16:36:09.107Z,29.05
2022-09-10T16:38:35.743Z,29.35
2022-09-10T16:41:04.210Z,29.48
2022-09-10T16:43:35.484Z,29.54
2022-09-10T16:46:03.636Z,29.44
2022-09-10T16:48:31.806Z,29.56
2022-09-10T16:51:07.810Z,29.65
2022-09-10T16:53:38.947Z,29.17
2022-09-10T16:56:08.715Z,29.18
2022-09-10T16:58:36.858Z,29.34
2022-09-10T17:01:06.361Z,29.49
2022-09-10T17:03:33.102Z,29.30
2022-09-10T17:06:00.199Z,29.34
2022-09-10T17:08:29.241Z,29.47
2022-09-10T17:10:56.790Z,29.25
2022-09-10T17:13:23.606Z,28.90
2022-09-10T17:15:53.320Z,29.07
2022-09-10T17:18:20.537Z,29.05
2022-09-10T17:20:48.510Z,28.43
2022-09-10T17:23:18.631Z,28.14
2022-09-10T17:25:45.561Z,28.21
2022-09-10T17:28:12.869Z,28.15
2022-09-10T17:30:39.723Z,28.05
2022-09-10T17:33:06.457Z,28.12
2022-09-10T17:35:33.176Z,28.09
2022-09-10T17:38:00.064Z,27.57
2022-09-10T17:40:26.798Z,27.86
2022-09-10T17:42:53.723Z,28.16
2022-09-10T17:45:21.283Z,27.59
2022-09-10T17:47:48.528Z,27.78
2022-09-10T17:50:15.451Z,27.76
2022-09-10T17:52:45.845Z,27.40
2022-09-10T17:55:12.640Z,27.53
2022-09-10T17:57:39.723Z,27.55
2022-09-10T18:00:07.195Z,27.67
2022-09-10T18:02:34.470Z,27.81
2022-09-10T18:05:01.839Z,28.17
2022-09-10T18:07:28.753Z,28.28
2022-09-10T18:09:55.602Z,28.19
2022-09-10T18:12:22.444Z,28.34
2022-09-10T18:14:49.216Z,28.08
2022-09-10T18:17:17.455Z,28.02
2022-09-10T18:19:44.298Z,28.11
2022-09-10T18:22:11.688Z,27.95
2022-09-10T18:24:39.452Z,28.25
2022-09-10T18:27:06.532Z,28.35
2022-09-10T18:29:33.459Z,28.44
2022-09-10T18:32:03.781Z,28.35
2022-09-10T18:34:30.993Z,28.12
2022-09-10T18:37:02.518Z,27.99
2022-09-10T18:39:31.502Z,28.05
2022-09-10T18:42:00.989Z,28.04
2022-09-10T18:44:33.110Z,27.64
2022-09-10T18:47:00.350Z,27.71
2022-09-10T18:49:27.098Z,28.12
2022-09-10T18:51:55.592Z,28.27
2022-09-10T18:54:24.389Z,28.10
2022-09-10T18:56:51.428Z,28.14
2022-09-10T18:59:20.361Z,28.05
2022-09-10T19:01:48.938Z,27.94
2022-09-10T19:04:21.969Z,27.85
2022-09-10T19:06:49.511Z,27.32
2022-09-10T19:09:21.900Z,26.80
2022-09-10T19:11:50.627Z,26.99
2022-09-10T19:14:21.313Z,26.37
2022-09-10T19:16:50.223Z,26.69
2022-09-10T19:19:19.935Z,26.28
2022-09-10T19:21:48.860Z,26.58
2022-09-10T19:24:17.105Z,26.65
2022-09-10T19:26:46.116Z,26.42
2022-09-10T19:29:17.978Z,26.14
2022-09-10T19:31:46.764Z,26.13
2022-09-10T19:34:16.156Z,26.14
2022-09-10T19:36:44.333Z,26.74
2022-09-10T19:39:14.155Z,26.57
2022-09-10T19:41:43.044Z,26.75
2022-09-10T19:44:12.467Z,27.02
2022-09-10T19:46:41.147Z,26.63
2022-09-10T19:49:10.124Z,26.29
2022-09-10T19:51:38.656Z,26.63
2022-09-10T19:54:06.723Z,26.99
2022-09-10T19:56:37.237Z,26.58
2022-09-10T19:59:08.693Z,26.34
2022-09-10T20:01:39.975Z,26.23
2022-09-10T20:04:09.297Z,26.54
2022-09-10T20:06:37.226Z,26.67
2022-09-10T20:09:05.826Z,26.88
2022-09-10T20:11:35.079Z,26.98
2022-09-10T20:14:11.284Z,27.09
2022-09-10T20:16:40.972Z,26.39
2022-09-10T20:19:07.949Z,25.92
2022-09-10T20:21:35.957Z,26.34
2022-09-10T20:24:05.563Z,26.68
2022-09-10T20:26:34.546Z,26.16
2022-09-10T20:29:07.388Z,26.33
2022-09-10T20:31:36.165Z,26.19
2022-09-10T20:34:05.528Z,26.46
2022-09-10T20:36:34.481Z,26.34
2022-09-10T20:39:02.066Z,25.79
2022-09-10T20:41:30.218Z,25.78
2022-09-10T20:43:59.681Z,26.00
2022-09-10T20:46:28.440Z,25.73
2022-09-10T20:49:05.768Z,25.80
2022-09-10T20:51:35.427Z,25.45
2022-09-10T20:54:03.659Z,25.69
2022-09-10T20:56:30.602Z,25.45
2022-09-10T20:58:57.632Z,25.58
2022-09-10T21:01:27.310Z,25.28
2022-09-10T21:03:57.766Z,24.98
2022-09-10T21:06:27.906Z,25.29
2022-09-10T21:08:58.205Z,25.50
2022-09-10T21:11:28.037Z,25.40
2022-09-10T21:13:57.282Z,25.45
2022-09-10T21:16:27.998Z,25.50
2022-09-10T21:19:22.292Z,25.17
2022-09-10T21:21:49.604Z,25.49
2022-09-10T21:24:19.095Z,25.19
2022-09-10T21:26:46.260Z,24.61
2022-09-10T21:29:15.592Z,25.06
2022-09-10T21:31:42.727Z,25.61
2022-09-10T21:34:09.693Z,25.38
2022-09-10T21:36:38.075Z,25.38
2022-09-10T21:39:07.313Z,25.49
2022-09-10T21:41:39.939Z,25.85
2022-09-10T21:44:14.140Z,25.70
2022-09-10T21:46:42.466Z,25.78
2022-09-10T21:49:09.520Z,25.26
2022-09-10T21:51:37.359Z,25.27
2022-09-10T21:54:04.880Z,25.65
2022-09-10T21:56:33.463Z,25.53
2022-09-10T21:59:01.281Z,25.02
2022-09-10T22:01:31.334Z,25.28
2022-09-10T22:04:00.569Z,25.55
2022-09-10T22:06:30.048Z,24.77
2022-09-10T22:08:59.436Z,24.95
2022-09-10T22:11:47.012Z,25.14
2022-09-10T22:14:16.691Z,24.80
2022-09-10T22:16:44.270Z,24.75
2022-09-10T22:19:20.421Z,24.41
2022-09-10T22:21:47.382Z,24.49
2022-09-10T22:24:15.072Z,24.76
2022-09-10T22:26:43.989Z,25.11
2022-09-10T22:29:12.511Z,25.29
2022-09-10T22:31:39.749Z,24.91
2022-09-10T22:34:10.140Z,24.99
2022-09-10T22:36:38.855Z,25.20
2022-09-10T22:39:12.389Z,25.24
2022-09-10T22:41:39.816Z,24.92
2022-09-10T22:44:07.007Z,24.97
2022-09-10T22:46:35.596Z,25.15
2022-09-10T22:49:04.900Z,24.95
2022-09-10T22:51:36.010Z,25.12
2022-09-10T22:54:04.741Z,24.78
2022-09-10T22:56:31.751Z,24.76
2022-09-10T22:58:59.748Z,24.70
2022-09-10T23:01:29.555Z,24.96
2022-09-10T23:04:01.805Z,24.66
2022-09-10T23:06:30.946Z,24.77
2022-09-10T23:09:03.602Z,24.80
2022-09-10T23:11:32.276Z,24.87
2022-09-10T23:14:01.531Z,24.83
2022-09-10T23:16:34.451Z,24.28
2022-09-10T23:19:04.687Z,24.25
2022-09-10T23:21:33.491Z,24.79
2022-09-10T23:24:02.930Z,24.21
2022-09-10T23:26:30.391Z,24.59
2022-09-10T23:28:57.576Z,25.01
2022-09-10T23:31:29.434Z,24.55
2022-09-10T23:34:05.159Z,23.98
2022-09-10T23:36:38.631Z,24.44
2022-09-10T23:39:17.200Z,24.44
2022-09-10T23:41:44.090Z,24.82
2022-09-10T23:44:10.837Z,24.77
2022-09-10T23:46:38.271Z,24.65
2022-09-10T23:49:07.534Z,24.81
2022-09-10T23:51:35.266Z,24.97
2022-09-10T23:54:02.779Z,24.57
2022-09-10T23:56:30.059Z,24.73
2022-09-10T23:58:59.615Z,24.99
